Time;durP1;ratioP1;P1;durP2;ratioP2;P2;SDS_P1;SDS_P2;PMS_P1;PMS_P2;Temp;Humidity;BMP_temperature;BMP_pressure;BME280_temperature;BME280_humidity;BME280_pressure;Samples;Min_cycle;Max_cycle;Signal;HPM_P1;HPM_P2
2023/01/18 00:05:10;;;;;;;12.00;10.90;;;4.90;99.90;;;;;;10531330;28;20307;-83
2023/01/18 00:10:12;;;;;;;12.47;11.27;;;4.90;99.90;;;;;;10517518;28;20224;-81
2023/01/18 00:15:16;;;;;;;11.90;10.80;;;4.90;99.90;;;;;;10512722;28;20223;-79
2023/01/18 00:20:20;;;;;;;11.13;10.13;;;5.10;99.90;;;;;;10542753;28;20298;-81
2023/01/18 00:25:23;;;;;;;12.70;11.70;;;5.10;99.90;;;;;;10534913;28;20219;-81
2023/01/18 00:30:28;;;;;;;15.40;13.87;;;5.00;99.90;;;;;;10535862;28;20345;-82
2023/01/18 00:35:30;;;;;;;13.23;12.17;;;5.00;99.90;;;;;;10547099;28;20302;-82
2023/01/18 00:40:45;;;;;;;14.10;12.83;;;5.00;99.90;;;;;;10556818;28;20555;-83
2023/01/18 00:45:48;;;;;;;13.70;12.50;;;5.00;99.90;;;;;;10519967;28;20269;-82
2023/01/18 00:50:50;;;;;;;13.90;12.80;;;5.00;99.90;;;;;;10540517;28;20207;-82
2023/01/18 00:55:58;;;;;;;15.43;14.13;;;5.00;99.90;;;;;;10542515;28;20287;-83
2023/01/18 01:01:02;;;;;;;14.97;13.73;;;5.00;99.90;;;;;;10531343;28;20744;-83
2023/01/18 01:11:20;;;;;;;15.90;14.60;;;5.10;99.90;;;;;;10537057;28;20309;-82
2023/01/18 01:27:03;;;;;;;16.17;14.83;;;5.20;99.90;;;;;;10501201;28;20198;-83
2023/01/18 01:32:07;;;;;;;15.20;13.90;;;5.10;99.90;;;;;;10540837;28;20323;-83
2023/01/18 01:37:09;;;;;;;16.03;14.73;;;5.10;99.90;;;;;;10530649;28;20565;-83
2023/01/18 01:42:11;;;;;;;18.03;16.53;;;5.00;99.90;;;;;;10511804;28;20750;-81
2023/01/18 01:47:41;;;;;;;16.00;14.70;;;5.10;99.90;;;;;;10522111;28;20223;-83
2023/01/18 01:52:46;;;;;;;15.57;14.32;;;5.00;99.90;;;;;;10565568;22;20236;-82
2023/01/18 01:57:52;;;;;;;16.20;14.70;;;5.20;99.90;;;;;;10531675;28;20289;-82
2023/01/18 02:02:59;;;;;;;14.00;12.90;;;5.30;99.90;;;;;;10492599;28;20308;-80
2023/01/18 02:08:03;;;;;;;13.77;12.63;;;5.30;99.90;;;;;;10487032;28;20219;-80
2023/01/18 02:13:08;;;;;;;16.43;14.93;;;5.10;99.90;;;;;;10486473;28;20227;-80
2023/01/18 02:18:24;;;;;;;15.27;14.13;;;5.00;99.90;;;;;;10485626;28;20295;-81
2023/01/18 02:23:41;;;;;;;15.20;14.00;;;5.00;99.90;;;;;;10486337;28;20272;-81
2023/01/18 02:28:48;;;;;;;15.53;14.27;;;4.90;99.90;;;;;;10485246;28;20224;-81
2023/01/18 02:33:57;;;;;;;15.40;14.13;;;4.90;99.90;;;;;;10503271;28;20220;-82
2023/01/18 02:39:05;;;;;;;15.90;14.60;;;4.90;99.90;;;;;;10485627;28;20192;-80
2023/01/18 02:49:31;;;;;;;14.85;13.65;;;5.00;99.90;;;;;;10471502;28;20227;-81
2023/01/18 02:54:35;;;;;;;12.27;11.27;;;5.20;99.90;;;;;;10505424;28;20229;-80
2023/01/18 02:59:44;;;;;;;15.80;14.50;;;5.20;99.90;;;;;;10488497;28;20221;-81
2023/01/18 03:04:54;;;;;;;15.90;14.60;;;5.00;99.90;;;;;;10489395;28;20616;-80
2023/01/18 03:09:57;;;;;;;17.20;15.70;;;4.90;99.90;;;;;;10497376;28;20232;-81
2023/01/18 03:15:07;;;;;;;17.33;15.83;;;4.90;99.90;;;;;;10501379;28;20220;-81
2023/01/18 03:20:11;;;;;;;16.63;15.13;;;4.90;99.90;;;;;;10522798;28;20252;-81
2023/01/18 03:25:17;;;;;;;17.10;15.60;;;4.90;99.90;;;;;;10506333;28;20224;-81
2023/01/18 03:35:41;;;;;;;15.83;14.40;;;4.90;99.90;;;;;;10576536;28;20230;-81
2023/01/18 03:40:43;;;;;;;16.67;15.17;;;4.90;99.90;;;;;;10557227;28;20200;-81
2023/01/18 03:45:49;;;;;;;15.35;13.95;;;4.90;99.90;;;;;;10524158;28;20239;-81
2023/01/18 03:50:55;;;;;;;13.63;12.43;;;5.00;99.90;;;;;;10513111;28;20299;-81
2023/01/18 03:56:01;;;;;;;14.70;13.40;;;5.20;99.90;;;;;;10502193;28;20231;-81
2023/01/18 04:01:05;;;;;;;16.00;14.57;;;5.10;99.90;;;;;;10527640;28;20196;-80
2023/01/18 04:06:08;;;;;;;17.37;15.77;;;5.00;99.90;;;;;;10498009;28;20250;-81
2023/01/18 04:11:10;;;;;;;17.27;15.67;;;4.90;99.90;;;;;;10516472;28;20559;-81
2023/01/18 04:16:13;;;;;;;16.43;14.93;;;4.90;99.90;;;;;;10517050;28;20232;-81
2023/01/18 04:21:15;;;;;;;17.37;15.87;;;4.90;99.90;;;;;;10511141;28;20270;-81
2023/01/18 04:26:21;;;;;;;16.70;15.20;;;4.90;99.90;;;;;;10474786;28;20204;-81
2023/01/18 04:31:28;;;;;;;17.53;15.70;;;4.90;99.90;;;;;;10474199;28;20229;-82
2023/01/18 04:36:30;;;;;;;18.20;16.60;;;4.80;99.90;;;;;;10473975;28;20201;-81
2023/01/18 04:41:32;;;;;;;17.27;15.88;;;4.90;99.90;;;;;;10490400;28;20290;-81
2023/01/18 04:46:37;;;;;;;19.40;17.60;;;5.00;99.90;;;;;;10474320;28;20204;-82
2023/01/18 04:51:39;;;;;;;16.33;14.93;;;5.20;99.90;;;;;;10491647;28;20513;-81
2023/01/18 04:56:42;;;;;;;16.17;14.77;;;5.10;99.90;;;;;;10490477;28;20235;-81
2023/01/18 05:01:45;;;;;;;16.30;14.95;;;5.00;99.90;;;;;;10473423;28;20212;-81
2023/01/18 05:06:48;;;;;;;15.30;14.00;;;5.00;99.90;;;;;;10479806;28;20208;-81
2023/01/18 05:11:50;;;;;;;14.50;13.30;;;5.00;99.90;;;;;;10491826;28;20228;-82
2023/01/18 05:16:53;;;;;;;14.70;13.50;;;4.90;99.90;;;;;;10502984;28;20203;-80
2023/01/18 05:21:56;;;;;;;12.57;11.57;;;4.80;99.90;;;;;;10530100;28;20268;-80
2023/01/18 05:26:58;;;;;;;12.07;11.07;;;4.70;99.90;;;;;;10513565;28;20254;-81
2023/01/18 05:32:02;;;;;;;11.83;10.77;;;4.70;99.90;;;;;;10509290;28;20280;-80
2023/01/18 05:37:04;;;;;;;9.37;8.67;;;4.70;99.90;;;;;;10512339;28;20334;-80
2023/01/18 05:42:07;;;;;;;8.80;8.20;;;4.60;99.90;;;;;;10505706;28;20263;-80
2023/01/18 05:47:12;;;;;;;9.70;9.00;;;4.60;99.90;;;;;;10496465;28;20231;-81
2023/01/18 05:52:16;;;;;;;9.00;8.10;;;4.50;99.90;;;;;;10508303;28;20231;-81
2023/01/18 05:57:19;;;;;;;8.13;7.53;;;4.60;99.90;;;;;;10478927;28;20204;-81
2023/01/18 06:02:24;;;;;;;6.80;6.20;;;4.60;99.90;;;;;;10466785;28;20215;-80
2023/01/18 06:07:26;;;;;;;7.37;6.77;;;4.50;99.90;;;;;;10504561;28;20284;-81
2023/01/18 06:12:28;;;;;;;8.23;7.60;;;4.50;99.90;;;;;;10499297;28;20221;-80
2023/01/18 06:17:32;;;;;;;7.80;7.30;;;4.50;99.90;;;;;;10465515;28;20250;-82
2023/01/18 06:22:34;;;;;;;7.80;7.30;;;4.50;99.90;;;;;;10480571;28;20227;-80
2023/01/18 06:27:38;;;;;;;7.70;7.20;;;4.50;99.90;;;;;;10482480;28;20684;-82
2023/01/18 06:32:41;;;;;;;7.67;7.10;;;4.50;99.90;;;;;;10489504;28;20699;-82
2023/01/18 06:37:45;;;;;;;7.60;7.10;;;4.50;99.90;;;;;;10505201;28;20684;-81
2023/01/18 06:42:48;;;;;;;7.70;7.10;;;4.50;99.90;;;;;;10464797;28;20223;-81
2023/01/18 06:47:52;;;;;;;7.03;6.57;;;4.50;99.90;;;;;;10491560;28;20567;-81
2023/01/18 06:52:54;;;;;;;7.43;6.93;;;4.50;99.90;;;;;;10481027;28;20290;-84
2023/01/18 06:57:56;;;;;;;8.07;7.47;;;4.50;99.90;;;;;;10464972;28;20208;-84
2023/01/18 07:02:59;;;;;;;8.93;8.20;;;4.50;99.90;;;;;;10474378;28;20216;-82
2023/01/18 07:08:02;;;;;;;9.13;8.43;;;4.50;99.90;;;;;;10481056;28;20204;-83
2023/01/18 07:13:04;;;;;;;9.43;8.73;;;4.50;99.90;;;;;;10483496;28;20225;-82
2023/01/18 07:18:07;;;;;;;11.00;9.93;;;4.50;99.90;;;;;;10462662;28;20204;-82
2023/01/18 07:23:09;;;;;;;10.90;9.83;;;4.50;99.90;;;;;;10481587;28;20216;-82
2023/01/18 07:28:12;;;;;;;11.03;10.13;;;4.50;99.90;;;;;;10466572;28;20196;-82
2023/01/18 07:33:15;;;;;;;10.83;9.73;;;4.50;99.90;;;;;;10484985;28;20221;-83
2023/01/18 07:38:18;;;;;;;11.53;10.53;;;4.50;99.90;;;;;;10491855;28;20193;-83
2023/01/18 07:43:20;;;;;;;10.47;9.67;;;4.50;99.90;;;;;;10479103;28;20288;-84
2023/01/18 07:48:24;;;;;;;10.50;9.70;;;4.60;99.90;;;;;;10477227;28;20265;-84
2023/01/18 07:53:27;;;;;;;11.27;10.27;;;4.60;99.90;;;;;;10490526;28;20233;-83
2023/01/18 07:58:30;;;;;;;11.77;10.77;;;4.70;99.90;;;;;;10502674;28;20201;-83
2023/01/18 08:03:33;;;;;;;10.48;9.68;;;4.80;99.90;;;;;;10509773;28;20211;-84
2023/01/18 08:08:36;;;;;;;10.60;9.77;;;4.90;99.90;;;;;;10501612;28;20213;-83
2023/01/18 08:13:40;;;;;;;10.73;9.80;;;4.90;99.90;;;;;;10515265;28;20238;-83
2023/01/18 08:18:44;;;;;;;11.88;10.75;;;4.90;99.90;;;;;;10501105;28;20200;-83
2023/01/18 08:23:46;;;;;;;12.00;10.97;;;4.90;99.90;;;;;;10482737;28;20221;-84
2023/01/18 08:28:48;;;;;;;12.13;11.05;;;4.90;99.90;;;;;;10543467;28;20203;-83
2023/01/18 08:33:51;;;;;;;11.13;10.23;;;4.90;99.90;;;;;;10510497;28;20223;-82
2023/01/18 08:38:55;;;;;;;10.70;9.83;;;4.90;99.90;;;;;;10513500;28;20193;-84
2023/01/18 08:43:59;;;;;;;13.77;12.47;;;4.90;99.90;;;;;;10512512;28;20232;-84
2023/01/18 08:49:04;;;;;;;12.90;11.57;;;4.80;99.90;;;;;;10481061;28;20204;-83
2023/01/18 08:54:06;;;;;;;12.50;11.30;;;4.90;99.90;;;;;;10511712;28;20224;-84
2023/01/18 08:59:09;;;;;;;11.40;10.40;;;4.90;99.90;;;;;;10487800;28;20505;-82
2023/01/18 09:04:12;;;;;;;9.80;8.80;;;4.90;99.90;;;;;;10509554;28;20221;-83
2023/01/18 09:09:14;;;;;;;8.37;7.57;;;4.90;99.90;;;;;;10495477;28;20226;-83
2023/01/18 09:14:17;;;;;;;9.40;8.70;;;4.90;99.90;;;;;;10512482;28;20644;-83
2023/01/18 09:19:20;;;;;;;9.17;8.47;;;5.00;99.90;;;;;;10494918;28;20621;-82
2023/01/18 09:24:22;;;;;;;9.17;8.37;;;5.00;99.90;;;;;;10492996;28;20276;-83
2023/01/18 09:29:24;;;;;;;9.00;8.27;;;5.00;99.90;;;;;;10512703;28;20238;-84
2023/01/18 09:34:28;;;;;;;7.57;7.07;;;5.10;99.90;;;;;;10494023;28;20216;-83
2023/01/18 09:39:30;;;;;;;8.73;8.13;;;5.00;99.90;;;;;;10479767;28;20240;-83
2023/01/18 09:44:36;;;;;;;9.75;8.88;;;5.10;99.90;;;;;;10493758;28;20217;-83
2023/01/18 09:49:50;;;;;;;8.80;8.10;;;5.10;99.90;;;;;;10476290;28;20692;-84
2023/01/18 09:55:00;;;;;;;8.17;7.57;;;5.10;99.90;;;;;;10493493;28;20225;-84
2023/01/18 10:00:04;;;;;;;9.17;8.40;;;4.90;99.90;;;;;;10479332;28;20189;-83
2023/01/18 10:05:13;;;;;;;10.37;9.40;;;4.90;99.90;;;;;;10492910;28;20250;-84
2023/01/18 10:10:17;;;;;;;9.33;8.60;;;4.70;99.90;;;;;;10489230;28;20208;-82
2023/01/18 10:15:21;;;;;;;9.03;8.23;;;4.70;99.90;;;;;;10505082;28;20215;-84
2023/01/18 10:20:31;;;;;;;9.18;8.40;;;4.70;99.90;;;;;;10490399;28;20187;-84
2023/01/18 10:25:37;;;;;;;8.80;8.10;;;4.90;99.90;;;;;;10506158;28;20624;-83
2023/01/18 10:30:50;;;;;;;8.27;7.60;;;5.00;99.90;;;;;;10488972;28;20224;-84
2023/01/18 10:35:58;;;;;;;9.18;8.48;;;5.20;99.90;;;;;;10471355;28;20221;-83
2023/01/18 10:41:02;;;;;;;8.80;7.97;;;5.30;99.90;;;;;;10470439;28;20227;-82
2023/01/18 10:46:13;;;;;;;10.00;9.10;;;5.30;99.90;;;;;;10509735;28;20254;-83
2023/01/18 10:51:30;;;;;;;9.20;8.30;;;5.20;99.90;;;;;;10505122;28;20311;-83
2023/01/18 10:56:32;;;;;;;10.35;9.50;;;5.00;99.90;;;;;;10473267;28;20253;-83
2023/01/18 11:01:36;;;;;;;10.17;9.27;;;5.10;99.90;;;;;;10490560;28;20213;-83
2023/01/18 11:06:48;;;;;;;10.45;9.55;;;5.20;99.90;;;;;;10471979;28;20258;-82
2023/01/18 11:17:24;;;;;;;9.93;9.00;;;5.30;99.90;;;;;;10369756;28;20198;-83
2023/01/18 11:22:31;;;;;;;9.43;8.43;;;5.20;99.90;;;;;;10442864;28;20730;-82
2023/01/18 11:27:33;;;;;;;9.80;8.80;;;5.10;99.90;;;;;;10476615;28;20287;-83
2023/01/18 11:32:36;;;;;;;11.43;10.17;;;5.10;99.90;;;;;;10500457;28;20252;-84
2023/01/18 11:37:43;;;;;;;10.33;9.33;;;5.00;99.90;;;;;;10470739;28;20208;-83
2023/01/18 11:42:46;;;;;;;8.97;8.03;;;4.90;99.90;;;;;;10499330;28;20227;-82
2023/01/18 11:48:00;;;;;;;9.40;8.57;;;4.90;99.90;;;;;;10495197;28;20201;-83
2023/01/18 11:53:17;;;;;;;10.70;7.80;;;4.80;99.90;;;;;;10498423;28;20228;-82
2023/01/18 11:58:24;;;;;;;9.30;8.40;;;4.90;99.90;;;;;;10497667;28;20640;-83
2023/01/18 12:03:47;;;;;;;8.40;7.70;;;4.80;99.90;;;;;;10499474;28;20227;-83
2023/01/18 12:09:03;;;;;;;8.70;7.70;;;4.90;99.90;;;;;;10496168;28;20207;-84
2023/01/18 12:14:16;;;;;;;9.00;6.57;;;5.00;99.90;;;;;;10511969;28;20228;-84
2023/01/18 12:19:47;;;;;;;7.67;6.97;;;5.00;99.90;;;;;;10509513;28;20620;-84
2023/01/18 12:25:03;;;;;;;7.57;6.90;;;4.90;99.90;;;;;;10495862;28;20246;-84
2023/01/18 12:30:31;;;;;;;15.60;10.63;;;5.10;99.90;;;;;;10496305;28;20294;-84
2023/01/18 12:36:00;;;;;;;8.67;7.80;;;5.40;99.90;;;;;;10480356;28;20455;-82
2023/01/18 12:41:34;;;;;;;7.43;6.80;;;5.40;99.90;;;;;;10473883;28;20598;-83
2023/01/18 12:46:43;;;;;;;10.50;6.90;;;5.30;99.90;;;;;;10502242;28;20737;-83
2023/01/18 12:51:48;;;;;;;6.93;6.30;;;5.30;99.90;;;;;;10486393;28;20281;-83
2023/01/18 12:56:55;;;;;;;8.00;7.30;;;5.10;99.70;;;;;;10480128;28;20231;-83
2023/01/18 13:02:03;;;;;;;7.97;7.13;;;5.10;99.90;;;;;;10492360;28;20224;-83
2023/01/18 13:07:11;;;;;;;7.40;6.77;;;5.10;99.90;;;;;;10517007;28;20571;-83
2023/01/18 13:12:15;;;;;;;8.47;7.70;;;5.10;99.90;;;;;;10495131;28;20240;-83
2023/01/18 13:17:25;;;;;;;7.45;6.72;;;5.10;99.90;;;;;;10474175;28;20205;-83
2023/01/18 13:22:33;;;;;;;7.20;6.65;;;5.40;99.90;;;;;;10489955;28;20270;-84
2023/01/18 13:27:37;;;;;;;7.30;6.57;;;5.60;99.90;;;;;;10473726;28;20284;-84
2023/01/18 13:32:41;;;;;;;7.30;6.60;;;5.70;99.80;;;;;;10474762;28;20339;-83
2023/01/18 13:37:47;;;;;;;7.10;6.50;;;5.60;99.90;;;;;;10490617;28;20210;-84
2023/01/18 13:42:51;;;;;;;7.10;6.20;;;5.60;99.90;;;;;;10491297;28;20224;-84
2023/01/18 13:48:06;;;;;;;7.27;6.57;;;5.60;99.90;;;;;;10473822;28;20211;-83
2023/01/18 13:53:21;;;;;;;6.57;6.00;;;5.70;99.70;;;;;;10477840;28;20292;-83
2023/01/18 13:58:27;;;;;;;7.27;6.67;;;5.60;99.90;;;;;;10484007;28;20668;-83
2023/01/18 14:03:32;;;;;;;6.57;5.70;;;5.60;99.50;;;;;;10492583;28;20243;-83
2023/01/18 14:08:36;;;;;;;8.50;6.17;;;5.50;99.30;;;;;;10493946;28;20235;-83
2023/01/18 14:14:03;;;;;;;9.35;7.10;;;5.50;99.20;;;;;;10479267;28;20235;-83
2023/01/18 14:19:15;;;;;;;8.10;7.10;;;5.60;99.30;;;;;;10491775;28;20199;-82
2023/01/18 14:24:31;;;;;;;8.37;7.43;;;5.80;99.80;;;;;;10512289;28;20458;-82
2023/01/18 14:29:43;;;;;;;6.93;6.20;;;5.80;99.40;;;;;;10477523;28;20641;-81
2023/01/18 14:34:45;;;;;;;7.20;6.50;;;5.70;99.80;;;;;;10514501;28;20243;-82
2023/01/18 14:39:48;;;;;;;8.37;6.80;;;5.60;99.90;;;;;;10492347;28;20204;-81
2023/01/18 14:44:51;;;;;;;6.07;5.57;;;5.50;99.60;;;;;;10509628;28;20658;-82
2023/01/18 14:49:54;;;;;;;7.28;6.65;;;5.50;99.90;;;;;;10509226;28;20201;-83
2023/01/18 14:54:56;;;;;;;7.83;5.90;;;5.70;99.90;;;;;;10476797;28;20235;-84
2023/01/18 15:00:16;;;;;;;6.43;5.93;;;5.70;99.20;;;;;;10474072;28;20196;-83
2023/01/18 15:05:20;;;;;;;7.22;6.63;;;5.60;99.60;;;;;;10472467;28;20220;-83
2023/01/18 15:10:23;;;;;;;7.40;5.70;;;5.80;99.50;;;;;;10476425;28;20223;-82
2023/01/18 15:15:30;;;;;;;6.60;6.00;;;5.80;99.50;;;;;;10477897;28;20223;-84
2023/01/18 15:20:33;;;;;;;7.05;6.45;;;5.70;99.40;;;;;;10493543;28;20193;-84
2023/01/18 15:25:35;;;;;;;7.15;6.55;;;5.80;99.40;;;;;;10474201;28;20244;-83
2023/01/18 15:30:39;;;;;;;6.33;5.83;;;5.90;99.20;;;;;;10474885;28;20236;-84
2023/01/18 15:35:41;;;;;;;7.30;6.10;;;5.90;99.00;;;;;;10499889;28;20232;-84
2023/01/18 15:40:56;;;;;;;10.33;6.20;;;5.80;99.10;;;;;;10480588;28;20724;-84
2023/01/18 15:46:00;;;;;;;15.57;9.80;;;5.70;99.20;;;;;;10495795;28;20204;-84
2023/01/18 15:51:07;;;;;;;12.50;8.40;;;5.60;98.70;;;;;;10495002;28;20219;-84
2023/01/18 15:56:16;;;;;;;9.27;6.53;;;5.60;99.70;;;;;;10479088;28;20268;-84
2023/01/18 16:01:23;;;;;;;8.07;7.23;;;5.60;99.30;;;;;;10515541;28;20223;-85
2023/01/18 16:06:35;;;;;;;7.45;6.70;;;5.60;99.20;;;;;;10500090;28;20292;-82
2023/01/18 16:11:45;;;;;;;7.47;6.57;;;5.70;99.60;;;;;;10489463;28;20227;-83
2023/01/18 16:16:48;;;;;;;7.10;6.50;;;5.70;99.00;;;;;;10477780;28;20229;-82
2023/01/18 16:21:53;;;;;;;9.03;7.10;;;5.60;98.30;;;;;;10493687;28;20226;-82
2023/01/18 16:26:56;;;;;;;8.37;7.53;;;5.50;98.90;;;;;;10477351;28;20201;-83
2023/01/18 16:32:29;;;;;;;7.23;6.53;;;5.40;99.30;;;;;;10478130;28;20220;-82
2023/01/18 16:37:31;;;;;;;7.27;6.50;;;5.30;99.70;;;;;;10483446;28;20196;-83
2023/01/18 16:42:41;;;;;;;8.57;6.53;;;5.30;99.10;;;;;;10478230;28;20227;-82
2023/01/18 16:47:44;;;;;;;7.03;6.27;;;5.20;99.90;;;;;;10516966;28;20196;-83
2023/01/18 16:52:47;;;;;;;8.23;7.10;;;5.20;99.90;;;;;;10496008;28;20598;-82
2023/01/18 16:57:49;;;;;;;8.90;6.83;;;5.20;99.90;;;;;;10487698;28;20209;-82
2023/01/18 17:02:53;;;;;;;7.70;7.00;;;5.20;99.90;;;;;;10493855;28;20216;-82
2023/01/18 17:07:55;;;;;;;6.97;6.37;;;5.20;99.90;;;;;;10476424;28;20660;-84
2023/01/18 17:12:58;;;;;;;8.73;6.77;;;5.20;98.70;;;;;;10460385;28;20302;-83
2023/01/18 17:18:02;;;;;;;6.70;5.83;;;5.10;99.70;;;;;;10485094;28;20291;-84
2023/01/18 17:23:04;;;;;;;6.83;6.13;;;5.10;98.40;;;;;;10470049;28;20213;-84
2023/01/18 17:28:07;;;;;;;7.78;6.10;;;5.10;98.60;;;;;;10466774;28;20200;-84
2023/01/18 17:33:17;;;;;;;7.00;6.30;;;5.20;99.20;;;;;;10471018;28;20222;-84
2023/01/18 17:38:19;;;;;;;7.90;7.00;;;5.20;99.40;;;;;;10504868;28;20200;-84
2023/01/18 17:43:21;;;;;;;6.60;6.00;;;5.10;99.30;;;;;;10470109;28;20310;-85
2023/01/18 17:48:25;;;;;;;8.50;6.93;;;5.10;99.40;;;;;;10489614;28;20204;-84
2023/01/18 17:53:27;;;;;;;8.23;7.50;;;5.00;98.80;;;;;;10469677;28;20224;-84
2023/01/18 17:58:29;;;;;;;7.18;5.82;;;5.00;98.50;;;;;;10488817;28;20204;-84
2023/01/18 18:03:32;;;;;;;6.10;5.53;;;5.20;99.50;;;;;;10495320;28;20247;-84
2023/01/18 18:08:35;;;;;;;8.10;5.93;;;5.20;98.20;;;;;;10495376;28;20264;-83
2023/01/18 18:13:40;;;;;;;8.33;7.43;;;5.30;97.80;;;;;;10529696;28;20256;-84
2023/01/18 18:18:43;;;;;;;6.83;6.23;;;5.30;98.40;;;;;;10493805;28;20226;-83
2023/01/18 18:23:46;;;;;;;8.00;7.20;;;5.10;97.70;;;;;;10481902;28;20239;-82
2023/01/18 18:28:48;;;;;;;7.22;6.20;;;5.10;98.50;;;;;;10466009;28;20208;-83
2023/01/18 18:33:54;;;;;;;7.00;6.40;;;5.20;98.50;;;;;;10504041;28;20224;-85
2023/01/18 18:38:56;;;;;;;9.33;6.70;;;5.30;98.20;;;;;;10509550;28;20283;-83
2023/01/18 18:43:58;;;;;;;6.47;5.87;;;5.20;97.40;;;;;;10480566;28;20589;-82
2023/01/18 18:49:01;;;;;;;6.47;5.97;;;5.10;97.20;;;;;;10506683;28;20227;-82
2023/01/18 18:54:04;;;;;;;6.30;5.67;;;5.00;97.20;;;;;;10513556;28;20220;-83
2023/01/18 18:59:06;;;;;;;7.50;6.80;;;4.90;97.20;;;;;;10507325;28;20199;-83
2023/01/18 19:04:09;;;;;;;7.10;6.50;;;4.90;97.10;;;;;;10491638;28;20266;-83
2023/01/18 19:09:12;;;;;;;6.77;6.27;;;4.80;97.00;;;;;;10486739;28;20191;-82
2023/01/18 19:14:15;;;;;;;7.90;7.10;;;4.80;96.20;;;;;;10505949;28;20220;-82
2023/01/18 19:19:19;;;;;;;8.03;7.23;;;4.60;97.40;;;;;;10494024;28;20254;-82
2023/01/18 19:24:21;;;;;;;11.30;7.40;;;4.60;97.20;;;;;;10511674;28;20224;-81
2023/01/18 19:29:23;;;;;;;7.43;6.73;;;4.50;97.20;;;;;;10479802;28;20203;-82
2023/01/18 19:34:26;;;;;;;9.43;7.70;;;4.40;97.50;;;;;;10489275;28;20743;-82
2023/01/18 19:39:28;;;;;;;7.90;7.10;;;4.40;97.00;;;;;;10516216;28;20202;-82
2023/01/18 19:44:30;;;;;;;8.88;7.93;;;4.40;96.60;;;;;;10488596;28;20240;-83
2023/01/18 19:49:34;;;;;;;8.10;7.40;;;4.50;96.30;;;;;;10504786;28;20195;-82
2023/01/18 19:54:36;;;;;;;8.35;7.55;;;4.40;96.60;;;;;;10489925;28;20248;-81
2023/01/18 19:59:38;;;;;;;8.63;7.90;;;4.40;96.40;;;;;;10504789;28;20234;-80
2023/01/18 20:04:42;;;;;;;12.23;8.77;;;4.30;95.30;;;;;;10484505;28;20230;-81
2023/01/18 20:09:44;;;;;;;9.97;9.07;;;4.20;95.70;;;;;;10500622;28;20200;-80
2023/01/18 20:14:47;;;;;;;9.30;8.37;;;4.00;95.90;;;;;;10492964;28;20231;-80
2023/01/18 20:19:52;;;;;;;11.93;9.60;;;3.80;96.60;;;;;;10494053;28;20206;-80
2023/01/18 20:24:54;;;;;;;10.60;8.63;;;3.90;96.50;;;;;;10488473;28;20446;-79
2023/01/18 20:29:57;;;;;;;15.13;10.33;;;3.90;96.40;;;;;;10505360;28;20201;-79
2023/01/18 20:35:03;;;;;;;11.97;9.40;;;3.90;95.90;;;;;;10490073;28;20231;-81
2023/01/18 20:40:10;;;;;;;10.53;9.07;;;3.80;96.00;;;;;;10492780;28;20300;-82
2023/01/18 20:45:12;;;;;;;10.63;9.73;;;3.80;95.80;;;;;;10488991;28;20223;-82
2023/01/18 20:50:16;;;;;;;12.07;9.70;;;3.70;96.00;;;;;;10489028;28;20212;-82
2023/01/18 20:55:19;;;;;;;11.10;9.37;;;3.90;96.40;;;;;;10508032;28;20216;-82
2023/01/18 21:00:23;;;;;;;10.67;9.67;;;4.00;96.50;;;;;;10485347;28;20206;-82
2023/01/18 21:05:27;;;;;;;11.63;9.57;;;4.10;96.20;;;;;;10491226;28;20215;-81
2023/01/18 21:10:37;;;;;;;12.27;9.10;;;4.10;95.20;;;;;;10529513;28;20197;-82
2023/01/18 21:15:40;;;;;;;16.87;9.10;;;4.20;95.80;;;;;;10467643;28;20228;-82
2023/01/18 21:20:50;;;;;;;10.97;8.87;;;4.10;96.30;;;;;;10506883;28;20204;-81
2023/01/18 21:25:54;;;;;;;12.90;10.70;;;4.00;95.50;;;;;;10496740;28;20427;-82
2023/01/18 21:30:56;;;;;;;9.50;8.50;;;4.00;95.60;;;;;;10497426;28;20649;-81
2023/01/18 21:36:04;;;;;;;13.13;9.20;;;3.90;95.90;;;;;;10480238;28;20240;-82
2023/01/18 21:46:26;;;;;;;11.90;9.20;;;3.90;95.90;;;;;;10513759;28;20266;-81
2023/01/18 21:56:50;;;;;;;10.40;8.95;;;3.80;95.50;;;;;;10530425;28;20519;-81
2023/01/18 22:01:52;;;;;;;9.43;8.53;;;3.90;95.60;;;;;;10492282;28;20588;-81
2023/01/18 22:06:58;;;;;;;10.30;8.80;;;3.90;96.40;;;;;;10532532;28;20189;-81
2023/01/18 22:12:00;;;;;;;10.27;9.27;;;3.80;95.70;;;;;;10488909;28;20223;-81
2023/01/18 22:17:02;;;;;;;18.57;15.70;;;3.80;95.80;;;;;;10508329;28;20204;-80
2023/01/18 22:22:06;;;;;;;9.73;8.77;;;3.70;96.90;;;;;;10510068;28;20219;-81
2023/01/18 22:27:09;;;;;;;11.30;9.10;;;3.80;95.70;;;;;;10515231;28;20211;-81
2023/01/18 22:32:11;;;;;;;9.20;8.30;;;3.90;95.70;;;;;;10505333;28;20217;-83
2023/01/18 22:37:15;;;;;;;8.67;7.80;;;3.80;95.00;;;;;;10494511;28;20232;-82
2023/01/18 22:42:17;;;;;;;13.80;10.50;;;3.60;95.60;;;;;;10504672;28;20291;-81
2023/01/18 22:47:19;;;;;;;10.23;9.30;;;3.40;95.70;;;;;;10496072;28;20200;-84
2023/01/18 22:52:23;;;;;;;12.70;10.03;;;3.20;95.60;;;;;;10528641;28;20225;-81
2023/01/18 22:57:25;;;;;;;11.00;9.90;;;3.00;95.50;;;;;;10491194;28;20222;-80
2023/01/18 23:02:27;;;;;;;11.50;10.00;;;2.80;95.70;;;;;;10516565;28;20570;-80
2023/01/18 23:07:31;;;;;;;11.57;10.50;;;2.50;97.00;;;;;;10513871;28;20573;-81
2023/01/18 23:12:33;;;;;;;11.90;10.80;;;2.50;97.20;;;;;;10471189;28;20538;-80
2023/01/18 23:17:42;;;;;;;13.83;12.60;;;2.50;97.60;;;;;;10495761;28;20192;-79
2023/01/18 23:22:47;;;;;;;13.33;11.50;;;2.60;97.70;;;;;;10504942;28;20688;-81
2023/01/18 23:27:49;;;;;;;15.17;11.60;;;2.70;98.20;;;;;;10482303;28;20287;-80
2023/01/18 23:32:51;;;;;;;13.47;10.63;;;2.80;97.60;;;;;;10507407;28;20758;-82
2023/01/18 23:37:54;;;;;;;11.93;10.67;;;2.80;96.60;;;;;;10481239;28;20196;-81
2023/01/18 23:59:01;;;;;;;11.13;10.20;;;2.90;97.60;;;;;;10484624;28;20226;-81
